createdAt,value
2024-01-20T00:00:58.555Z,60.23
2024-01-20T00:01:58.514Z,60.77
2024-01-20T00:02:58.500Z,58.07
2024-01-20T00:03:58.558Z,57.53
2024-01-20T00:04:58.568Z,55.46
2024-01-20T00:05:58.551Z,54.34
2024-01-20T00:06:58.677Z,56.09
2024-01-20T00:07:58.584Z,59.18
2024-01-20T00:08:58.608Z,58.14
2024-01-20T00:09:58.602Z,59.05
2024-01-20T00:10:58.614Z,60.70
2024-01-20T00:11:58.644Z,60.17
2024-01-20T00:12:58.621Z,62.04
2024-01-20T00:13:58.698Z,59.20
2024-01-20T00:14:58.658Z,63.73
2024-01-20T00:15:58.647Z,62.08
2024-01-20T00:17:03.301Z,64.05
2024-01-20T00:17:59.717Z,63.92
2024-01-20T00:18:58.746Z,64.06
2024-01-20T00:19:58.749Z,64.71
2024-01-20T00:20:58.678Z,64.68
2024-01-20T00:21:58.673Z,65.61
2024-01-20T00:22:58.712Z,66.35
2024-01-20T00:23:58.672Z,69.33
2024-01-20T00:24:58.664Z,69.89
2024-01-20T00:25:58.686Z,72.28
2024-01-20T00:26:58.660Z,69.38
2024-01-20T00:27:58.674Z,70.92
2024-01-20T00:28:58.704Z,73.79
2024-01-20T00:29:58.669Z,74.17
2024-01-20T00:30:58.666Z,76.52
2024-01-20T00:31:58.711Z,73.77
2024-01-20T00:32:58.731Z,74.20
2024-01-20T00:33:58.743Z,77.12
2024-01-20T00:35:05.681Z,78.14
2024-01-20T00:35:59.724Z,78.15
2024-01-20T00:36:58.676Z,78.28
2024-01-20T00:37:58.702Z,79.06
2024-01-20T00:38:58.683Z,79.47
2024-01-20T00:39:58.685Z,79.13
2024-01-20T00:40:58.710Z,78.64
2024-01-20T00:41:58.685Z,76.81
2024-01-20T00:42:58.682Z,78.83
2024-01-20T00:43:58.720Z,79.86
2024-01-20T00:44:58.697Z,78.12
2024-01-20T00:45:58.679Z,80.96
2024-01-20T00:46:58.704Z,82.01
2024-01-20T00:47:58.736Z,81.95
2024-01-20T00:48:58.748Z,84.03
2024-01-20T00:49:58.744Z,84.30
2024-01-20T00:50:58.709Z,84.77
2024-01-20T00:51:58.696Z,87.03
2024-01-20T00:52:58.725Z,87.86
2024-01-20T00:53:58.698Z,87.08
2024-01-20T00:54:58.705Z,86.21
2024-01-20T00:55:58.700Z,85.62
2024-01-20T00:56:58.684Z,86.14
2024-01-20T00:57:58.695Z,86.18
2024-01-20T00:58:58.730Z,86.02
2024-01-20T00:59:58.704Z,85.15
2024-01-20T01:00:58.708Z,84.39
2024-01-20T01:01:58.701Z,82.16
2024-01-20T01:02:58.735Z,79.01
2024-01-20T01:03:58.702Z,79.81
2024-01-20T01:04:58.714Z,78.71
2024-01-20T01:05:58.707Z,79.42
2024-01-20T01:06:58.701Z,77.71
2024-01-20T01:07:58.734Z,76.54
2024-01-20T01:08:58.720Z,75.04
2024-01-20T01:09:58.722Z,76.29
2024-01-20T01:10:58.758Z,74.49
2024-01-20T01:11:58.742Z,76.14
2024-01-20T01:12:58.789Z,77.70
2024-01-20T01:13:58.827Z,77.68
2024-01-20T01:14:58.787Z,75.68
2024-01-20T01:15:58.813Z,72.50
2024-01-20T01:16:58.975Z,75.02
2024-01-20T01:17:58.877Z,75.08
2024-01-20T01:18:58.862Z,77.19
2024-01-20T01:19:58.890Z,74.40
2024-01-20T01:20:58.896Z,75.43
2024-01-20T01:21:58.913Z,76.20
2024-01-20T01:22:58.916Z,75.84
2024-01-20T01:23:58.933Z,74.03
2024-01-20T01:24:58.924Z,75.50
2024-01-20T01:25:59.040Z,71.93
2024-01-20T01:26:59.091Z,76.16
2024-01-20T01:27:58.962Z,73.11
2024-01-20T01:28:59.002Z,71.97
2024-01-20T01:29:59.047Z,72.54
2024-01-20T01:30:59.044Z,71.73
2024-01-20T01:31:59.105Z,69.38
2024-01-20T01:32:59.065Z,70.15
2024-01-20T01:33:59.083Z,69.37
2024-01-20T01:34:59.154Z,69.38
2024-01-20T01:35:59.096Z,67.53
2024-01-20T01:36:59.091Z,65.97
2024-01-20T01:37:59.199Z,65.52
2024-01-20T01:38:59.142Z,64.79
2024-01-20T01:39:59.158Z,61.42
2024-01-20T01:40:59.173Z,62.45
2024-01-20T01:41:59.186Z,61.94
2024-01-20T01:42:59.187Z,62.54
2024-01-20T01:43:59.289Z,58.88
2024-01-20T01:44:59.225Z,58.11
2024-01-20T01:45:59.265Z,58.33
2024-01-20T01:46:59.307Z,57.81
2024-01-20T01:47:59.395Z,57.51
2024-01-20T01:48:59.321Z,58.20
2024-01-20T01:49:59.355Z,53.74
2024-01-20T01:50:59.361Z,57.61
2024-01-20T01:51:59.334Z,58.01
2024-01-20T01:52:59.352Z,57.09
2024-01-20T01:53:59.409Z,58.59
2024-01-20T01:54:59.385Z,57.86
2024-01-20T01:55:59.404Z,57.88
2024-01-20T01:56:59.461Z,59.34
2024-01-20T01:57:59.442Z,60.14
2024-01-20T01:58:59.463Z,58.12
2024-01-20T01:59:59.548Z,60.11
2024-01-20T02:00:59.529Z,57.80
2024-01-20T02:01:59.502Z,59.33
2024-01-20T02:02:59.582Z,57.23
2024-01-20T02:03:59.608Z,57.31
2024-01-20T02:04:59.562Z,56.35
2024-01-20T02:05:59.653Z,57.81
2024-01-20T02:06:59.648Z,55.97
2024-01-20T02:07:59.610Z,57.81
2024-01-20T02:08:59.673Z,60.23
2024-01-20T02:09:59.657Z,60.70
2024-01-20T02:10:59.673Z,61.52
2024-01-20T02:11:59.716Z,60.43
2024-01-20T02:12:59.716Z,61.54
2024-01-20T02:13:59.731Z,63.98
2024-01-20T02:14:59.746Z,62.14
2024-01-20T02:15:59.766Z,64.58
2024-01-20T02:16:59.803Z,63.59
2024-01-20T02:17:59.920Z,63.68
2024-01-20T02:19:00.160Z,63.33
2024-01-20T02:19:59.815Z,64.48
2024-01-20T02:20:59.886Z,66.67
2024-01-20T02:21:59.846Z,66.04
2024-01-20T02:22:59.879Z,66.29
2024-01-20T02:23:59.918Z,65.58
2024-01-20T02:24:59.917Z,67.04
2024-01-20T02:25:59.922Z,65.95
2024-01-20T02:26:59.966Z,64.77
2024-01-20T02:27:59.984Z,66.71
2024-01-20T02:28:59.990Z,64.35
2024-01-20T02:30:00.030Z,64.85
2024-01-20T02:31:00.025Z,69.34
2024-01-20T02:32:00.087Z,65.69
2024-01-20T02:33:00.179Z,67.40
2024-01-20T02:34:00.228Z,67.53
2024-01-20T02:35:00.147Z,66.15
2024-01-20T02:36:00.180Z,66.52
2024-01-20T02:37:00.165Z,71.02
2024-01-20T02:38:00.193Z,68.06
2024-01-20T02:39:00.282Z,66.28
2024-01-20T02:40:00.263Z,65.09
2024-01-20T02:41:00.260Z,64.93
2024-01-20T02:42:00.324Z,63.67
2024-01-20T02:43:00.301Z,62.43
2024-01-20T02:44:00.352Z,64.38
2024-01-20T02:45:00.432Z,62.54
2024-01-20T02:46:00.358Z,62.55
2024-01-20T02:47:00.397Z,62.96
2024-01-20T02:48:00.660Z,60.91
2024-01-20T02:49:00.671Z,59.75
2024-01-20T02:50:00.541Z,61.39
2024-01-20T02:51:00.498Z,62.19
2024-01-20T02:52:00.500Z,64.45
2024-01-20T02:53:00.514Z,63.41
2024-01-20T02:54:00.579Z,59.66
2024-01-20T02:55:00.617Z,59.28
2024-01-20T02:56:00.591Z,62.65
2024-01-20T02:57:00.631Z,60.62
2024-01-20T02:58:00.621Z,62.83
2024-01-20T02:59:00.667Z,60.55
2024-01-20T03:00:01.673Z,57.94
2024-01-20T03:01:00.774Z,59.72
2024-01-20T03:02:00.749Z,57.67
2024-01-20T03:03:00.878Z,55.42
2024-01-20T03:04:00.890Z,58.83
2024-01-20T03:05:00.944Z,57.85
2024-01-20T03:06:00.896Z,57.27
2024-01-20T03:07:00.888Z,57.42
2024-01-20T03:08:00.896Z,56.45
2024-01-20T03:09:00.941Z,57.96
2024-01-20T03:10:00.971Z,59.83
2024-01-20T03:11:01.013Z,59.08
2024-01-20T03:12:01.025Z,59.57
2024-01-20T03:13:01.026Z,61.73
2024-01-20T03:14:01.061Z,62.74
2024-01-20T03:15:01.169Z,64.58
2024-01-20T03:16:01.114Z,62.73
2024-01-20T03:17:01.159Z,61.66
2024-01-20T03:18:01.209Z,66.42
2024-01-20T03:19:01.257Z,66.42
2024-01-20T03:20:01.259Z,68.76
2024-01-20T03:21:01.294Z,68.98
2024-01-20T03:22:01.342Z,69.21
2024-01-20T03:23:01.339Z,71.49
2024-01-20T03:24:01.440Z,73.51
2024-01-20T03:25:01.489Z,74.39
2024-01-20T03:26:01.464Z,74.59
2024-01-20T03:27:01.492Z,75.56
2024-01-20T03:28:01.476Z,77.56
2024-01-20T03:29:01.500Z,76.93
2024-01-20T03:30:01.553Z,81.45
2024-01-20T03:31:01.568Z,80.12
2024-01-20T03:32:01.574Z,84.72
2024-01-20T03:33:01.694Z,78.63
2024-01-20T03:34:01.674Z,80.15
2024-01-20T03:35:01.661Z,80.45
2024-01-20T03:36:01.715Z,82.36
2024-01-20T03:37:01.709Z,79.12
2024-01-20T03:38:01.738Z,78.04
2024-01-20T03:39:01.819Z,79.25
2024-01-20T03:40:01.811Z,79.09
2024-01-20T03:41:01.826Z,75.70
2024-01-20T03:42:01.892Z,74.43
2024-01-20T03:43:01.892Z,74.85
2024-01-20T03:44:01.963Z,76.45
2024-01-20T03:45:02.037Z,76.75
2024-01-20T03:46:02.021Z,77.05
2024-01-20T03:47:02.052Z,74.79
2024-01-20T03:48:02.093Z,76.64
2024-01-20T03:49:02.244Z,75.70
2024-01-20T03:50:02.252Z,75.65
2024-01-20T03:51:02.248Z,72.00
2024-01-20T03:52:02.172Z,73.53
2024-01-20T03:53:02.216Z,71.56
2024-01-20T03:54:02.285Z,72.24
2024-01-20T03:55:02.290Z,70.61
2024-01-20T03:56:02.285Z,70.12
2024-01-20T03:57:02.333Z,69.93
2024-01-20T03:58:02.358Z,66.53
2024-01-20T03:59:02.372Z,69.72
2024-01-20T04:00:02.435Z,65.23
2024-01-20T04:01:02.478Z,64.71
2024-01-20T04:02:02.448Z,63.05
2024-01-20T04:03:02.583Z,64.52
2024-01-20T04:04:02.628Z,61.61
2024-01-20T04:05:02.621Z,64.15
2024-01-20T04:06:02.617Z,62.94
2024-01-20T04:07:02.585Z,63.10
2024-01-20T04:08:02.611Z,61.86
2024-01-20T04:09:02.622Z,62.53
2024-01-20T04:10:02.646Z,60.94
2024-01-20T04:11:02.704Z,62.06
2024-01-20T04:12:02.822Z,60.53
2024-01-20T04:13:02.738Z,59.99
2024-01-20T04:14:02.781Z,59.14
2024-01-20T04:15:02.850Z,56.81
2024-01-20T04:16:02.836Z,56.31
2024-01-20T04:17:10.558Z,50.00
2024-01-20T04:18:10.692Z,50.00
2024-01-20T04:19:10.744Z,50.00
2024-01-20T04:20:10.596Z,50.00
2024-01-20T04:21:10.631Z,50.00
2024-01-20T04:22:10.579Z,50.00
2024-01-20T04:23:10.614Z,53.66
2024-01-20T04:24:10.604Z,53.96
2024-01-20T04:25:10.605Z,53.29
2024-01-20T04:26:10.579Z,53.39
2024-01-20T04:27:10.597Z,55.37
2024-01-20T04:28:10.595Z,59.88
2024-01-20T04:29:10.672Z,60.65
2024-01-20T04:30:10.681Z,59.19
2024-01-20T04:31:18.399Z,50.00
2024-01-20T04:32:18.406Z,50.00
2024-01-20T04:33:18.533Z,50.00
2024-01-20T04:34:18.557Z,50.00
2024-01-20T04:35:18.477Z,50.00
2024-01-20T04:36:18.521Z,53.64
2024-01-20T04:37:18.492Z,50.88
2024-01-20T04:38:18.509Z,51.02
2024-01-20T04:39:18.484Z,51.78
2024-01-20T04:40:18.509Z,51.35
2024-01-20T04:41:18.479Z,55.32
2024-01-20T04:42:18.520Z,52.42
2024-01-20T04:43:18.481Z,52.29
2024-01-20T04:44:18.642Z,54.24
2024-01-20T04:45:18.534Z,51.09
2024-01-20T04:46:18.484Z,50.00
2024-01-20T04:47:18.478Z,50.11
2024-01-20T04:48:18.600Z,50.37
2024-01-20T04:49:18.627Z,50.48
2024-01-20T04:50:18.481Z,51.97
2024-01-20T04:51:18.593Z,50.09
2024-01-20T04:52:18.473Z,52.30
2024-01-20T04:53:18.485Z,52.82
2024-01-20T04:54:18.534Z,54.05
2024-01-20T04:55:18.499Z,53.80
2024-01-20T04:56:18.492Z,53.70
2024-01-20T04:57:18.522Z,54.77
2024-01-20T04:58:18.470Z,53.67
2024-01-20T04:59:18.495Z,55.14
2024-01-20T05:00:18.579Z,54.95
2024-01-20T05:01:18.506Z,55.79
2024-01-20T05:02:18.503Z,53.98
2024-01-20T05:03:18.516Z,56.18
2024-01-20T05:04:18.544Z,57.87
2024-01-20T05:05:18.503Z,56.76
2024-01-20T05:06:18.532Z,58.18
2024-01-20T05:07:18.586Z,58.79
2024-01-20T05:08:18.492Z,58.47
2024-01-20T05:09:18.555Z,56.27
2024-01-20T05:10:18.504Z,57.38
2024-01-20T05:11:18.515Z,57.83
2024-01-20T05:12:18.527Z,56.70
2024-01-20T05:13:18.494Z,54.90
2024-01-20T05:14:18.518Z,58.58
2024-01-20T05:15:18.558Z,55.88
2024-01-20T05:16:18.496Z,57.80
2024-01-20T05:17:18.519Z,56.81
2024-01-20T05:18:18.566Z,58.50
2024-01-20T05:19:18.585Z,56.99
2024-01-20T05:20:18.548Z,57.09
2024-01-20T05:21:18.524Z,59.65
2024-01-20T05:22:18.510Z,59.00
2024-01-20T05:23:18.497Z,59.58
2024-01-20T05:24:18.545Z,58.92
2024-01-20T05:25:18.514Z,60.89
2024-01-20T05:26:18.549Z,58.08
2024-01-20T05:27:18.605Z,60.35
2024-01-20T05:28:18.613Z,62.43
2024-01-20T05:29:18.668Z,59.77
2024-01-20T05:30:18.771Z,60.97
2024-01-20T05:31:18.700Z,63.32
2024-01-20T05:32:18.739Z,61.62
2024-01-20T05:33:18.865Z,63.17
2024-01-20T05:34:18.978Z,63.58
2024-01-20T05:35:18.865Z,63.21
2024-01-20T05:36:18.974Z,62.15
2024-01-20T05:37:18.943Z,64.79
2024-01-20T05:38:18.949Z,63.24
2024-01-20T05:39:19.016Z,62.35
2024-01-20T05:40:19.021Z,64.95
2024-01-20T05:41:19.045Z,62.73
2024-01-20T05:42:19.141Z,64.08
2024-01-20T05:43:19.127Z,64.80
2024-01-20T05:44:19.169Z,67.11
2024-01-20T05:45:19.206Z,65.53
2024-01-20T05:46:19.229Z,68.51
2024-01-20T05:47:19.256Z,68.12
2024-01-20T05:48:19.397Z,68.96
2024-01-20T05:49:19.437Z,71.28
2024-01-20T05:50:19.358Z,69.50
2024-01-20T05:51:19.436Z,71.35
2024-01-20T05:52:19.418Z,69.41
2024-01-20T05:53:19.469Z,74.27
2024-01-20T05:54:19.549Z,70.98
2024-01-20T05:55:19.573Z,74.04
2024-01-20T05:56:19.566Z,72.88
2024-01-20T05:57:19.647Z,75.43
2024-01-20T05:58:19.642Z,74.57
2024-01-20T05:59:19.688Z,75.05
2024-01-20T06:00:19.780Z,77.30
2024-01-20T06:01:19.769Z,73.28
2024-01-20T06:02:19.798Z,75.39
2024-01-20T06:03:19.890Z,77.31
2024-01-20T06:04:19.878Z,78.70
2024-01-20T06:05:19.933Z,76.87
2024-01-20T06:06:19.910Z,77.74
2024-01-20T06:07:19.956Z,79.51
2024-01-20T06:08:19.986Z,82.05
2024-01-20T06:09:20.074Z,80.03
2024-01-20T06:10:20.088Z,80.66
2024-01-20T06:11:20.096Z,80.59
2024-01-20T06:12:20.136Z,81.90
2024-01-20T06:13:20.171Z,81.31
2024-01-20T06:14:20.530Z,83.16
2024-01-20T06:15:20.273Z,85.01
2024-01-20T06:16:20.288Z,83.93
2024-01-20T06:17:20.320Z,88.03
2024-01-20T06:18:20.474Z,88.95
2024-01-20T06:19:20.516Z,90.54
2024-01-20T06:20:20.462Z,92.86
2024-01-20T06:21:20.512Z,90.89
2024-01-20T06:22:20.542Z,92.60
2024-01-20T06:23:20.573Z,92.55
2024-01-20T06:24:20.639Z,91.93
2024-01-20T06:25:20.654Z,95.56
2024-01-20T06:26:20.702Z,97.51
2024-01-20T06:28:24.898Z,50.00
2024-01-20T06:29:24.894Z,50.00
2024-01-20T06:30:24.982Z,50.00
2024-01-20T06:31:24.965Z,50.00
2024-01-20T06:32:25.049Z,50.00
2024-01-20T06:33:25.294Z,52.77
2024-01-20T06:34:25.132Z,52.90
2024-01-20T06:35:25.062Z,53.04
2024-01-20T06:36:25.061Z,53.54
2024-01-20T06:37:25.050Z,53.81
2024-01-20T06:38:25.070Z,52.79
2024-01-20T06:39:25.083Z,52.69
2024-01-20T06:40:25.058Z,55.89
2024-01-20T06:41:25.051Z,55.50
2024-01-20T06:42:25.081Z,54.81
2024-01-20T06:43:25.057Z,54.32
2024-01-20T06:44:25.043Z,55.52
2024-01-20T06:45:25.124Z,56.96
2024-01-20T06:46:25.043Z,57.94
2024-01-20T06:47:25.096Z,59.44
2024-01-20T06:48:25.131Z,62.05
2024-01-20T06:49:25.103Z,60.86
2024-01-20T06:50:25.055Z,64.19
2024-01-20T06:51:25.047Z,62.49
2024-01-20T06:52:25.063Z,65.36
2024-01-20T06:53:25.043Z,65.72
2024-01-20T06:54:25.100Z,64.91
2024-01-20T06:55:25.048Z,67.57
2024-01-20T06:56:25.059Z,68.39
2024-01-20T06:57:25.086Z,69.08
2024-01-20T06:58:25.048Z,73.48
2024-01-20T06:59:25.055Z,74.78
2024-01-20T07:00:25.106Z,70.86
2024-01-20T07:01:25.081Z,73.72
2024-01-20T07:02:25.067Z,76.20
2024-01-20T07:03:25.126Z,76.77
2024-01-20T07:04:25.185Z,80.71
2024-01-20T07:05:25.086Z,80.51
2024-01-20T07:06:25.157Z,80.69
2024-01-20T07:07:25.051Z,81.32
2024-01-20T07:08:25.073Z,80.84
2024-01-20T07:09:25.086Z,81.54
2024-01-20T07:10:25.067Z,85.82
2024-01-20T07:11:25.072Z,88.07
2024-01-20T07:12:25.154Z,87.15
2024-01-20T07:13:25.168Z,89.68
2024-01-20T07:14:25.251Z,89.29
2024-01-20T07:15:25.312Z,89.07
2024-01-20T07:16:25.361Z,92.24
2024-01-20T07:17:25.388Z,92.07
2024-01-20T07:18:25.513Z,92.06
2024-01-20T07:19:25.511Z,94.15
2024-01-20T07:20:25.521Z,96.38
2024-01-20T07:21:25.617Z,96.78
2024-01-20T07:22:25.619Z,95.52
2024-01-20T07:23:25.672Z,99.92
2024-01-20T07:24:25.782Z,99.24
2024-01-20T07:25:25.781Z,103.07
2024-01-20T07:26:25.837Z,102.22
2024-01-20T07:27:25.925Z,105.24
2024-01-20T07:28:25.930Z,107.74
2024-01-20T07:29:25.976Z,106.29
2024-01-20T07:30:26.021Z,107.46
2024-01-20T07:31:26.085Z,108.58
2024-01-20T07:32:26.133Z,110.59
2024-01-20T07:33:26.276Z,111.54
2024-01-20T07:34:26.231Z,114.54
2024-01-20T07:35:26.249Z,112.87
2024-01-20T07:36:26.288Z,114.31
2024-01-20T07:37:26.320Z,115.29
2024-01-20T07:38:26.386Z,113.62
2024-01-20T07:39:26.489Z,114.68
2024-01-20T07:40:26.487Z,115.38
2024-01-20T07:41:26.522Z,116.26
2024-01-20T07:42:26.585Z,112.71
2024-01-20T07:43:26.617Z,115.45
2024-01-20T07:44:26.678Z,116.63
2024-01-20T07:45:26.728Z,114.94
2024-01-20T07:46:26.778Z,113.41
2024-01-20T07:47:26.837Z,117.34
2024-01-20T07:48:26.986Z,116.00
2024-01-20T07:49:27.006Z,115.81
2024-01-20T07:50:26.951Z,117.69
2024-01-20T07:51:27.066Z,115.92
2024-01-20T07:52:27.048Z,117.09
2024-01-20T07:53:27.083Z,116.57
2024-01-20T07:54:27.243Z,116.42
2024-01-20T07:55:27.149Z,114.60
2024-01-20T07:56:27.201Z,115.28
2024-01-20T07:57:27.278Z,115.81
2024-01-20T07:58:27.262Z,114.89
2024-01-20T07:59:27.315Z,114.58
2024-01-20T08:00:27.412Z,113.40
2024-01-20T08:01:27.437Z,109.63
2024-01-20T08:02:27.396Z,110.45
2024-01-20T08:03:27.515Z,109.49
2024-01-20T08:04:27.477Z,108.22
2024-01-20T08:05:27.476Z,108.79
2024-01-20T08:06:27.567Z,106.81
2024-01-20T08:07:27.498Z,105.77
2024-01-20T08:08:27.537Z,104.48
2024-01-20T08:09:27.562Z,102.98
2024-01-20T08:10:27.551Z,105.05
2024-01-20T08:11:27.563Z,103.48
2024-01-20T08:12:27.582Z,99.75
2024-01-20T08:13:27.587Z,99.33
2024-01-20T08:14:27.584Z,99.48
2024-01-20T08:15:27.611Z,98.52
2024-01-20T08:16:27.599Z,98.80
2024-01-20T08:17:27.617Z,103.33
2024-01-20T08:18:27.711Z,101.71
2024-01-20T08:19:27.793Z,101.19
2024-01-20T08:20:27.691Z,101.94
2024-01-20T08:21:27.764Z,99.77
2024-01-20T08:22:27.800Z,102.33
2024-01-20T08:23:27.867Z,100.40
2024-01-20T08:24:27.941Z,98.68
2024-01-20T08:25:28.023Z,97.82
2024-01-20T08:26:28.059Z,94.94
2024-01-20T08:27:28.160Z,94.11
2024-01-20T08:28:28.213Z,91.31
2024-01-20T08:29:28.277Z,90.58
2024-01-20T08:30:28.449Z,89.75
2024-01-20T08:31:28.427Z,88.04
2024-01-20T08:32:29.118Z,91.22
2024-01-20T08:33:28.661Z,94.20
2024-01-20T08:34:28.654Z,91.27
2024-01-20T08:35:28.580Z,92.24
2024-01-20T08:36:28.744Z,91.64
2024-01-20T08:37:28.670Z,90.41
2024-01-20T08:38:28.697Z,91.23
2024-01-20T08:39:28.819Z,89.47
2024-01-20T08:40:28.760Z,92.90
2024-01-20T08:41:28.775Z,91.59
2024-01-20T08:42:28.828Z,91.35
2024-01-20T08:43:28.811Z,92.88
2024-01-20T08:44:28.820Z,90.94
2024-01-20T08:45:28.873Z,92.23
2024-01-20T08:46:28.837Z,90.40
2024-01-20T08:47:28.859Z,90.39
2024-01-20T08:48:29.000Z,90.91
2024-01-20T08:49:29.049Z,90.51
2024-01-20T08:50:29.054Z,89.90
2024-01-20T08:51:29.156Z,91.10
2024-01-20T08:52:29.186Z,89.49
2024-01-20T08:53:29.250Z,88.06
2024-01-20T08:54:29.393Z,87.78
2024-01-20T08:55:29.359Z,89.36
2024-01-20T08:56:29.434Z,89.20
2024-01-20T08:57:29.489Z,86.33
2024-01-20T08:58:29.498Z,84.22
2024-01-20T08:59:29.566Z,86.82
2024-01-20T09:00:29.694Z,79.00
2024-01-20T09:01:29.667Z,81.45
2024-01-20T09:02:29.709Z,83.35
2024-01-20T09:03:29.790Z,80.37
2024-01-20T09:04:29.761Z,79.44
2024-01-20T09:05:37.907Z,83.30
2024-01-20T09:06:30.952Z,83.33
2024-01-20T09:07:29.783Z,79.39
2024-01-20T09:08:29.809Z,74.92
2024-01-20T09:09:29.852Z,75.27
2024-01-20T09:10:29.806Z,77.55
2024-01-20T09:11:29.793Z,75.15
2024-01-20T09:12:29.848Z,73.59
2024-01-20T09:13:29.833Z,71.48
2024-01-20T09:14:29.821Z,70.71
2024-01-20T09:15:29.909Z,71.61
2024-01-20T09:16:29.814Z,70.69
2024-01-20T09:17:29.812Z,71.12
2024-01-20T09:18:29.997Z,68.96
2024-01-20T09:19:29.933Z,70.00
2024-01-20T09:20:29.987Z,68.86
2024-01-20T09:21:29.866Z,67.44
2024-01-20T09:22:29.924Z,67.08
2024-01-20T09:23:29.992Z,68.18
2024-01-20T09:24:30.071Z,67.41
2024-01-20T09:25:30.108Z,66.49
2024-01-20T09:26:30.159Z,66.25
2024-01-20T09:27:30.238Z,65.41
2024-01-20T09:28:30.277Z,63.82
2024-01-20T09:29:30.280Z,67.42
2024-01-20T09:30:31.068Z,66.57
2024-01-20T09:31:30.384Z,66.77
2024-01-20T09:32:30.470Z,64.46
2024-01-20T09:33:30.681Z,65.50
2024-01-20T09:34:30.627Z,66.19
2024-01-20T09:35:30.642Z,66.34
2024-01-20T09:36:30.730Z,66.59
2024-01-20T09:37:30.783Z,64.70
2024-01-20T09:38:30.847Z,65.20
2024-01-20T09:39:30.936Z,65.45
2024-01-20T09:40:30.922Z,66.44
2024-01-20T09:41:30.992Z,66.04
2024-01-20T09:42:31.107Z,65.60
2024-01-20T09:43:33.516Z,67.42
2024-01-20T09:44:31.264Z,63.31
2024-01-20T09:45:31.313Z,64.78
2024-01-20T09:46:31.346Z,67.88
2024-01-20T09:47:31.402Z,63.47
2024-01-20T09:48:31.508Z,65.89
2024-01-20T09:49:31.608Z,65.72
2024-01-20T09:50:31.447Z,66.62
2024-01-20T09:51:31.506Z,67.57
2024-01-20T09:52:31.504Z,64.54
2024-01-20T09:53:31.521Z,67.12
2024-01-20T09:54:31.561Z,65.47
2024-01-20T09:55:31.569Z,67.93
2024-01-20T09:56:31.576Z,66.53
2024-01-20T09:57:31.691Z,67.53
2024-01-20T09:58:31.630Z,64.66
2024-01-20T09:59:31.661Z,67.73
2024-01-20T10:00:31.850Z,65.59
2024-01-20T10:01:31.820Z,67.04
2024-01-20T10:02:31.773Z,68.90
2024-01-20T10:03:31.867Z,67.22
2024-01-20T10:04:31.846Z,62.99
2024-01-20T10:05:31.914Z,62.95
2024-01-20T10:06:31.908Z,63.24
2024-01-20T10:07:31.924Z,61.06
2024-01-20T10:08:33.280Z,61.94
2024-01-20T10:09:32.005Z,63.13
2024-01-20T10:10:31.995Z,59.06
2024-01-20T10:11:32.027Z,55.36
2024-01-20T10:12:32.104Z,58.31
2024-01-20T10:13:32.057Z,53.17
2024-01-20T10:14:32.070Z,53.88
2024-01-20T10:15:34.502Z,55.27
2024-01-20T10:16:32.096Z,51.91
2024-01-20T10:17:32.108Z,52.71
2024-01-20T10:18:32.182Z,51.42
2024-01-20T10:19:32.127Z,53.43
2024-01-20T10:20:32.082Z,52.19
2024-01-20T10:21:32.128Z,50.02
2024-01-20T10:22:32.097Z,51.11
2024-01-20T10:23:32.102Z,50.00
2024-01-20T10:24:32.156Z,54.19
2024-01-20T10:25:32.105Z,53.90
2024-01-20T10:26:32.131Z,52.63
2024-01-20T10:27:32.223Z,53.72
2024-01-20T10:28:32.115Z,50.84
2024-01-20T10:29:32.106Z,53.61
2024-01-20T10:30:32.170Z,50.64
2024-01-20T10:31:32.104Z,53.17
2024-01-20T10:32:47.125Z,51.37
2024-01-20T10:33:33.234Z,51.43
2024-01-20T10:34:32.271Z,51.87
2024-01-20T10:35:32.132Z,52.36
2024-01-20T10:36:32.162Z,52.55
2024-01-20T10:37:32.119Z,50.91
2024-01-20T10:38:32.148Z,50.70
2024-01-20T10:39:32.132Z,50.81
2024-01-20T10:40:32.142Z,53.09
2024-01-20T10:41:32.140Z,52.32
2024-01-20T10:42:32.201Z,51.39
2024-01-20T10:43:32.139Z,50.00
2024-01-20T10:44:32.135Z,50.55
2024-01-20T10:45:32.211Z,51.79
2024-01-20T10:46:32.144Z,53.36
2024-01-20T10:47:32.167Z,54.33
2024-01-20T10:48:32.221Z,53.26
2024-01-20T10:49:32.215Z,55.66
2024-01-20T10:50:32.147Z,54.27
2024-01-20T10:51:32.221Z,55.18
2024-01-20T10:52:32.219Z,54.91
2024-01-20T10:53:32.221Z,54.94
2024-01-20T10:54:32.308Z,56.54
2024-01-20T10:55:32.265Z,56.54
2024-01-20T10:56:32.287Z,55.86
2024-01-20T10:57:32.371Z,52.47
2024-01-20T10:58:32.359Z,53.82
2024-01-20T10:59:32.403Z,54.43
2024-01-20T11:00:32.496Z,52.20
2024-01-20T11:01:32.492Z,49.80
2024-01-20T11:02:32.561Z,51.79
2024-01-20T11:03:32.621Z,51.81
2024-01-20T11:04:32.691Z,50.70
2024-01-20T11:05:32.604Z,51.02
2024-01-20T11:06:32.828Z,51.76
2024-01-20T11:07:32.670Z,50.24
2024-01-20T11:08:32.756Z,52.59
2024-01-20T11:09:32.770Z,51.04
2024-01-20T11:10:32.753Z,51.37
2024-01-20T11:11:32.779Z,54.09
2024-01-20T11:12:32.828Z,50.42
2024-01-20T11:13:32.818Z,53.09
2024-01-20T11:14:32.889Z,51.28
2024-01-20T11:15:32.925Z,53.64
2024-01-20T11:16:32.909Z,54.48
2024-01-20T11:17:32.978Z,53.44
2024-01-20T11:18:33.002Z,52.63
2024-01-20T11:19:33.056Z,53.36
2024-01-20T11:20:33.015Z,50.54
2024-01-20T11:21:33.073Z,50.59
2024-01-20T11:22:33.148Z,51.76
2024-01-20T11:23:33.158Z,51.52
2024-01-20T11:24:33.233Z,50.56
2024-01-20T11:25:33.160Z,53.87
2024-01-20T11:26:33.178Z,53.02
2024-01-20T11:27:33.210Z,51.55
2024-01-20T11:28:33.260Z,51.41
2024-01-20T11:29:33.366Z,52.65
2024-01-20T11:30:33.469Z,51.11
2024-01-20T11:31:46.770Z,50.00
2024-01-20T11:32:46.765Z,50.00
2024-01-20T11:33:46.842Z,50.00
2024-01-20T11:34:46.845Z,50.00
2024-01-20T11:35:46.761Z,50.00
2024-01-20T11:36:46.803Z,52.02
2024-01-20T11:37:46.771Z,52.38
2024-01-20T11:38:46.753Z,52.73
2024-01-20T11:39:46.791Z,50.56
2024-01-20T11:40:46.767Z,51.13
2024-01-20T11:41:46.761Z,51.05
2024-01-20T11:42:46.788Z,52.67
2024-01-20T11:43:46.778Z,50.00
2024-01-20T11:44:46.766Z,54.62
2024-01-20T11:45:46.872Z,54.44
2024-01-20T11:46:46.797Z,52.28
2024-01-20T11:47:46.818Z,54.21
2024-01-20T11:48:46.908Z,52.96
2024-01-20T11:49:46.912Z,51.72
2024-01-20T11:50:46.864Z,51.63
2024-01-20T11:51:46.825Z,52.39
2024-01-20T11:52:46.794Z,52.47
2024-01-20T11:53:46.954Z,53.85
2024-01-20T11:54:46.811Z,53.85
2024-01-20T11:55:46.799Z,53.43
2024-01-20T11:56:46.801Z,53.94
2024-01-20T11:57:46.828Z,53.52
2024-01-20T11:58:46.835Z,53.15
2024-01-20T11:59:46.804Z,55.01
2024-01-20T12:00:46.869Z,56.52
2024-01-20T12:01:46.837Z,57.46
2024-01-20T12:02:46.811Z,57.73
2024-01-20T12:03:46.953Z,56.67
2024-01-20T12:04:46.822Z,58.10
2024-01-20T12:05:46.897Z,56.97
2024-01-20T12:06:46.840Z,57.21
2024-01-20T12:07:46.803Z,57.46
2024-01-20T12:08:46.906Z,57.51
2024-01-20T12:09:46.882Z,56.19
2024-01-20T12:10:46.804Z,56.61
2024-01-20T12:11:46.804Z,56.86
2024-01-20T12:12:46.812Z,55.79
2024-01-20T12:13:46.800Z,57.52
2024-01-20T12:14:46.817Z,54.93
2024-01-20T12:15:46.861Z,56.75
2024-01-20T12:16:46.813Z,55.11
2024-01-20T12:17:46.837Z,55.29
2024-01-20T12:18:46.975Z,52.84
2024-01-20T12:19:46.974Z,53.42
2024-01-20T12:20:46.819Z,52.63
2024-01-20T12:21:46.814Z,53.85
2024-01-20T12:22:46.831Z,54.52
2024-01-20T12:23:46.823Z,53.16
2024-01-20T12:24:46.830Z,51.55
2024-01-20T12:25:46.824Z,50.00
2024-01-20T12:26:46.830Z,51.84
2024-01-20T12:27:46.816Z,52.51
2024-01-20T12:28:46.825Z,52.57
2024-01-20T12:29:46.828Z,52.99
2024-01-20T12:30:46.891Z,49.52
2024-01-20T12:31:46.824Z,54.71
2024-01-20T12:32:46.847Z,55.20
2024-01-20T12:33:46.890Z,54.42
2024-01-20T12:34:46.861Z,54.44
2024-01-20T12:35:46.835Z,54.86
2024-01-20T12:36:46.833Z,52.88
2024-01-20T12:37:46.842Z,54.13
2024-01-20T12:38:46.834Z,53.67
2024-01-20T12:39:46.869Z,54.68
2024-01-20T12:40:46.849Z,52.31
2024-01-20T12:41:46.831Z,54.09
2024-01-20T12:42:46.885Z,52.33
2024-01-20T12:43:46.856Z,53.38
2024-01-20T12:44:46.845Z,52.95
2024-01-20T12:45:46.889Z,51.04
2024-01-20T12:46:46.901Z,53.67
2024-01-20T12:47:46.890Z,52.27
2024-01-20T12:48:47.073Z,52.77
2024-01-20T12:49:47.020Z,52.89
2024-01-20T12:50:46.968Z,51.28
2024-01-20T12:51:47.057Z,54.75
2024-01-20T12:52:47.014Z,52.79